Kununurra Airport
YPKU : now visible

Airfield :











YOU CAN JOIN US ON...

 
LOGIN :

Register | Disclaimer

   EN    FR    IT 

 









Legend :    VFR   Marginal VFR   IFR   Intensive IFR   Very Intensive IFR
Visi :
Ceiling :
>= 8 km
>= 3000ft
5 to 8 km
1000 to 3000 ft
1500m to 5 km
500 to 1000 ft
800 to 1500m
200 to 500 ft
< 800m
< 200 ft
Symbols :   Thunderstorms  Fog  Heavy snow  Heavy precipitations  Wind > 20 kt






- Airport Elevation : 145 ft
- IATA code : KNX


YPKU - Kununurra

CURRENT METAR :
  • 291200Z AUTO 12007KT 9999 // OVC120 22/13 Q1015 RF00.0/000.0

EXPIRED METARs :
  • 291130Z AUTO 11005KT 9999 // NCD 21/13 Q1014 RF00.0/000.0
  • 291100Z AUTO 11007KT 9999 // OVC120 22/13 Q1014 RF00.0/000.0
  • 291030Z AUTO 10008KT 9999 // OVC120 22/13 Q1014 RF00.0/000.0
  • 291000Z AUTO 11008KT 9999 // BKN120 22/14 Q1013 RF00.0/000.0
  • 290930Z AUTO 10009KT 9999 // SCT120 22/13 Q1013 RF00.0/000.0

TAF TAF YPKU
Valid from the 29 at 08:00 until the 29 at 20:00 UTC


290631Z 2908/2920 14012KT CAVOK
FM291200 12006KT CAVOK
FM291800 15008KT 9999 FEW020 SCT045
YBBB FIR / Oceania



MET'MAP, your aeronautical weather chart ! - Copyright ORBIFLY December 2007 - Disclaimer

ORBIFLY MET'MAP TEAM :

Programming & Development : Alexandra Zaïnal
Original concept : Baudouin d'Aumeries
Technical & hardware support : Manuel Goepfert
Assistance : Marc-Olivier Méhu




SOURCES & CREDITS :

   NOAA       Earth
Advisory